createdAt,value
2022-12-13T00:03:09.587Z,14.00
2022-12-13T00:07:11.214Z,14.00
2022-12-13T00:11:14.798Z,14.00
2022-12-13T00:15:17.263Z,14.10
2022-12-13T00:19:19.791Z,14.00
2022-12-13T00:23:21.859Z,14.00
2022-12-13T00:27:23.579Z,14.00
2022-12-13T00:35:47.435Z,14.00
2022-12-13T00:39:49.026Z,14.00
2022-12-13T00:43:50.856Z,14.00
2022-12-13T00:47:52.511Z,14.00
2022-12-13T00:51:54.339Z,14.00
2022-12-13T00:55:56.184Z,14.00
2022-12-13T00:59:57.882Z,14.00
2022-12-13T01:04:02.781Z,14.00
2022-12-13T01:08:04.653Z,14.00
2022-12-13T01:12:07.533Z,14.00
2022-12-13T01:16:11.495Z,14.00
2022-12-13T01:20:13.119Z,14.00
2022-12-13T01:24:15.699Z,14.00
2022-12-13T01:28:17.812Z,14.00
2022-12-13T01:32:19.575Z,14.00
2022-12-13T01:36:27.806Z,14.00
2022-12-13T01:40:30.105Z,14.00
2022-12-13T01:44:57.196Z,14.00
2022-12-13T01:49:20.400Z,14.00
2022-12-13T01:53:27.315Z,14.00
2022-12-13T01:57:29.122Z,14.00
2022-12-13T02:01:31.869Z,14.00
2022-12-13T02:05:41.621Z,14.00
2022-12-13T02:09:44.609Z,14.00
2022-12-13T02:13:46.282Z,14.00
2022-12-13T02:18:06.438Z,14.00
2022-12-13T02:22:32.873Z,14.00
2022-12-13T02:26:54.592Z,14.00
2022-12-13T02:31:12.560Z,14.00
2022-12-13T02:35:14.367Z,14.00
2022-12-13T02:39:30.151Z,14.00
2022-12-13T02:43:45.957Z,14.00
2022-12-13T02:47:49.702Z,14.00
2022-12-13T02:51:52.731Z,14.00
2022-12-13T02:55:54.707Z,14.00
2022-12-13T02:59:58.372Z,14.00
2022-12-13T03:04:26.436Z,14.00
2022-12-13T03:08:42.064Z,14.00
2022-12-13T03:13:20.344Z,14.00
2022-12-13T03:17:25.510Z,14.00
2022-12-13T03:21:27.774Z,14.00
2022-12-13T03:25:32.785Z,14.00
2022-12-13T03:29:34.710Z,14.00
2022-12-13T03:33:36.496Z,14.00
2022-12-13T03:37:38.162Z,14.00
2022-12-13T03:41:39.941Z,14.00
2022-12-13T03:45:41.568Z,14.00
2022-12-13T03:49:43.403Z,14.00
2022-12-13T03:53:45.163Z,14.00
2022-12-13T03:57:46.787Z,14.00
2022-12-13T04:01:48.598Z,14.00
2022-12-13T04:05:50.238Z,14.00
2022-12-13T04:09:51.914Z,14.00
2022-12-13T04:13:54.277Z,14.00
2022-12-13T04:17:56.371Z,14.00
2022-12-13T04:21:58.090Z,14.00
2022-12-13T04:26:00.721Z,14.00
2022-12-13T04:30:02.469Z,14.00
2022-12-13T04:34:04.307Z,14.00
2022-12-13T04:38:05.973Z,14.00
2022-12-13T04:42:07.558Z,14.00
2022-12-13T04:46:09.447Z,14.00
2022-12-13T04:50:11.448Z,14.00
2022-12-13T04:54:23.838Z,14.00
2022-12-13T04:58:27.059Z,14.00
2022-12-13T05:02:28.736Z,14.00
2022-12-13T05:06:30.388Z,14.00
2022-12-13T05:10:36.082Z,14.00
2022-12-13T05:14:39.301Z,14.00
2022-12-13T05:18:40.910Z,14.00
2022-12-13T05:22:42.620Z,14.00
2022-12-13T05:26:44.285Z,14.00
2022-12-13T05:30:45.886Z,14.00
2022-12-13T05:34:47.573Z,14.00
2022-12-13T05:38:49.220Z,14.00
2022-12-13T05:42:51.089Z,14.00
2022-12-13T05:46:52.867Z,14.00
2022-12-13T05:51:09.934Z,14.00
2022-12-13T05:55:13.491Z,14.00
2022-12-13T05:59:15.285Z,14.00
2022-12-13T06:03:17.138Z,14.00
2022-12-13T06:07:18.782Z,14.00
2022-12-13T06:11:31.036Z,14.00
2022-12-13T06:15:34.783Z,14.00
2022-12-13T06:19:37.180Z,14.00
2022-12-13T06:23:38.830Z,14.00
2022-12-13T06:27:40.494Z,14.00
2022-12-13T06:31:42.262Z,14.00
2022-12-13T06:35:43.884Z,14.00
2022-12-13T06:39:45.625Z,14.00
2022-12-13T06:43:48.347Z,14.00
2022-12-13T06:47:50.142Z,14.00
2022-12-13T06:51:51.960Z,14.00
2022-12-13T06:55:53.548Z,14.00
2022-12-13T06:59:55.223Z,14.00
2022-12-13T07:03:57.831Z,14.00
2022-12-13T07:07:59.551Z,14.00
2022-12-13T07:12:01.380Z,14.00
2022-12-13T07:16:07.371Z,14.00
2022-12-13T07:20:09.636Z,14.00
2022-12-13T07:24:11.698Z,14.00
2022-12-13T07:28:13.323Z,14.00
2022-12-13T07:32:15.033Z,14.00
2022-12-13T07:36:19.367Z,14.00
2022-12-13T07:40:21.010Z,14.10
2022-12-13T07:44:23.490Z,14.00
2022-12-13T07:48:26.740Z,14.00
2022-12-13T07:52:28.366Z,14.00
2022-12-13T07:56:30.159Z,14.00
2022-12-13T08:00:32.296Z,14.00
2022-12-13T08:04:38.349Z,14.00
2022-12-13T08:08:40.342Z,14.00
2022-12-13T08:12:41.997Z,14.00
2022-12-13T08:16:43.679Z,14.00
2022-12-13T08:20:45.382Z,14.00
2022-12-13T08:24:47.004Z,14.00
2022-12-13T08:28:48.602Z,14.00
2022-12-13T08:32:50.910Z,14.00
2022-12-13T08:36:52.518Z,14.00
2022-12-13T08:41:05.419Z,14.00
2022-12-13T08:45:07.858Z,14.00
2022-12-13T08:49:11.422Z,14.00
2022-12-13T08:53:28.145Z,14.00
2022-12-13T08:57:31.533Z,14.00
2022-12-13T09:01:33.735Z,14.00
2022-12-13T09:05:36.461Z,14.00
2022-12-13T09:09:38.309Z,14.00
2022-12-13T09:13:43.271Z,14.00
2022-12-13T09:17:52.390Z,14.00
2022-12-13T09:22:02.122Z,14.00
2022-12-13T09:26:06.281Z,14.00
2022-12-13T09:30:13.128Z,14.00
2022-12-13T09:34:14.802Z,14.00
2022-12-13T09:38:16.477Z,14.00
2022-12-13T09:42:30.516Z,14.00
2022-12-13T09:46:45.136Z,14.00
2022-12-13T09:50:58.036Z,14.00
2022-12-13T09:55:20.973Z,14.00
2022-12-13T09:59:32.250Z,14.00
2022-12-13T10:03:34.640Z,14.10
2022-12-13T10:07:39.995Z,14.10
2022-12-13T10:11:51.142Z,14.10
2022-12-13T10:16:03.602Z,14.10
2022-12-13T10:20:07.336Z,14.20
2022-12-13T10:24:31.368Z,14.30
2022-12-13T10:28:34.669Z,14.50
2022-12-13T10:32:55.008Z,14.60
2022-12-13T10:36:59.535Z,14.70
2022-12-13T10:41:01.590Z,14.70
2022-12-13T10:45:15.711Z,14.80
2022-12-13T10:49:27.134Z,14.80
2022-12-13T10:53:48.276Z,14.80
2022-12-13T10:57:55.346Z,14.80
2022-12-13T11:01:57.235Z,14.80
2022-12-13T11:06:15.419Z,14.80
2022-12-13T11:10:26.888Z,14.80
2022-12-13T11:14:38.980Z,14.80
2022-12-13T11:18:52.919Z,14.80
2022-12-13T11:23:26.095Z,14.70
2022-12-13T11:27:55.492Z,14.60
2022-12-13T11:32:34.734Z,14.60
2022-12-13T11:36:48.459Z,14.50
2022-12-13T11:40:58.423Z,14.40
2022-12-13T11:45:23.576Z,14.40
2022-12-13T11:49:40.362Z,14.40
2022-12-13T11:54:05.962Z,14.30
2022-12-13T11:59:02.394Z,14.30
2022-12-13T12:03:22.748Z,14.30
2022-12-13T12:08:05.261Z,14.20
2022-12-13T12:12:39.172Z,14.20
2022-12-13T12:16:53.395Z,14.20
2022-12-13T12:22:12.070Z,14.20
2022-12-13T12:26:08.809Z,14.20
2022-12-13T12:30:35.243Z,14.20
2022-12-13T12:35:11.993Z,14.10
2022-12-13T12:39:34.673Z,14.20
2022-12-13T12:43:39.434Z,14.10
2022-12-13T12:48:42.060Z,14.10
2022-12-13T12:52:29.505Z,14.10
2022-12-13T12:56:42.596Z,14.10
2022-12-13T13:01:16.717Z,14.10
2022-12-13T13:05:30.739Z,14.10
2022-12-13T13:09:33.289Z,14.10
2022-12-13T13:14:01.343Z,14.10
2022-12-13T13:18:03.137Z,14.10
2022-12-13T13:22:32.293Z,14.10
2022-12-13T13:26:40.905Z,14.10
2022-12-13T13:31:02.755Z,14.10
2022-12-13T13:35:32.483Z,14.10
2022-12-13T13:39:34.109Z,14.10
2022-12-13T13:43:36.149Z,14.10
2022-12-13T13:47:40.162Z,14.10
2022-12-13T13:52:30.475Z,14.10
2022-12-13T13:57:09.748Z,14.10
2022-12-13T14:01:25.058Z,14.10
2022-12-13T14:06:01.106Z,14.10
2022-12-13T14:10:22.278Z,14.00
2022-12-13T14:14:50.487Z,14.10
2022-12-13T14:19:13.662Z,14.00
2022-12-13T14:23:36.335Z,14.00
2022-12-13T14:27:37.949Z,14.00
2022-12-13T14:31:44.044Z,14.10
2022-12-13T14:35:56.615Z,14.10
2022-12-13T14:39:59.903Z,14.10
2022-12-13T14:44:15.667Z,14.10
2022-12-13T14:48:27.967Z,14.10
2022-12-13T14:52:37.219Z,14.10
2022-12-13T14:56:55.408Z,14.10
2022-12-13T15:00:57.126Z,14.10
2022-12-13T15:05:05.384Z,14.10
2022-12-13T15:09:14.471Z,14.10
2022-12-13T15:13:44.319Z,14.10
2022-12-13T15:17:46.129Z,14.10
2022-12-13T15:22:01.935Z,14.10
2022-12-13T15:26:10.938Z,14.10
2022-12-13T15:30:16.433Z,14.10
2022-12-13T15:34:28.795Z,14.10
2022-12-13T15:38:32.832Z,14.00
2022-12-13T15:42:37.919Z,14.10
2022-12-13T15:46:39.737Z,14.10
2022-12-13T15:50:47.214Z,14.10
2022-12-13T15:55:05.646Z,14.10
2022-12-13T15:59:26.147Z,14.10
2022-12-13T16:03:39.150Z,14.10
2022-12-13T16:07:40.818Z,14.10
2022-12-13T16:11:51.883Z,14.10
2022-12-13T16:16:00.507Z,14.10
2022-12-13T16:20:17.586Z,14.10
2022-12-13T16:24:19.350Z,14.10
2022-12-13T16:28:21.560Z,14.10
2022-12-13T16:32:27.734Z,14.10
2022-12-13T16:36:29.603Z,14.10
2022-12-13T16:40:32.975Z,14.10
2022-12-13T16:44:38.883Z,14.10
2022-12-13T16:48:40.513Z,14.10
2022-12-13T16:52:42.155Z,14.10
2022-12-13T16:56:43.896Z,14.10
2022-12-13T17:00:45.790Z,14.10
2022-12-13T17:04:47.547Z,14.10
2022-12-13T17:08:49.303Z,14.10
2022-12-13T17:12:51.078Z,14.10
2022-12-13T17:16:52.721Z,14.10
2022-12-13T17:20:58.433Z,14.10
2022-12-13T17:25:00.730Z,14.10
2022-12-13T17:29:02.517Z,14.00
2022-12-13T17:33:07.526Z,14.10
2022-12-13T17:37:10.753Z,14.10
2022-12-13T17:41:14.178Z,14.10
2022-12-13T17:45:17.919Z,14.10
2022-12-13T17:49:19.650Z,14.10
2022-12-13T17:53:25.174Z,14.10
2022-12-13T17:57:27.022Z,14.10
2022-12-13T18:01:28.679Z,14.10
2022-12-13T18:05:31.711Z,14.10
2022-12-13T18:09:33.421Z,14.10
2022-12-13T18:13:35.020Z,14.00
2022-12-13T18:18:09.617Z,14.10
2022-12-13T18:21:59.244Z,14.10
2022-12-13T18:26:07.014Z,14.00
2022-12-13T18:30:10.881Z,14.00
2022-12-13T18:34:12.748Z,14.00
2022-12-13T18:38:14.412Z,14.00
2022-12-13T18:42:16.012Z,14.00
2022-12-13T18:46:17.756Z,14.00
2022-12-13T18:50:19.444Z,14.00
2022-12-13T18:54:21.167Z,14.00
2022-12-13T18:58:22.737Z,14.10
2022-12-13T19:02:24.581Z,14.10
2022-12-13T19:06:28.133Z,14.10
2022-12-13T19:10:29.783Z,14.10
2022-12-13T19:14:31.392Z,14.10
2022-12-13T19:18:33.416Z,14.10
2022-12-13T19:22:35.747Z,14.00
2022-12-13T19:26:37.498Z,14.10
2022-12-13T19:30:39.168Z,14.00
2022-12-13T19:34:40.988Z,14.00
2022-12-13T19:38:42.808Z,14.10
2022-12-13T19:42:44.714Z,14.10
2022-12-13T19:46:48.269Z,14.10
2022-12-13T19:50:49.950Z,14.10
2022-12-13T19:54:51.747Z,14.20
2022-12-13T19:58:54.115Z,14.30
2022-12-13T20:02:56.226Z,14.40
2022-12-13T20:06:58.087Z,14.50
2022-12-13T20:11:06.065Z,14.60
2022-12-13T20:15:08.513Z,14.60
2022-12-13T20:19:10.983Z,14.70
2022-12-13T20:23:13.377Z,14.70
2022-12-13T20:27:15.422Z,14.70
2022-12-13T20:31:28.601Z,14.80
2022-12-13T20:35:30.391Z,14.80
2022-12-13T20:39:32.070Z,14.80
2022-12-13T20:43:34.744Z,14.80
2022-12-13T20:47:38.102Z,14.80
2022-12-13T20:51:41.636Z,14.80
2022-12-13T20:55:43.453Z,14.80
2022-12-13T20:59:50.184Z,14.90
2022-12-13T21:03:56.279Z,14.90
2022-12-13T21:08:16.707Z,14.90
2022-12-13T21:12:18.312Z,14.90
2022-12-13T21:16:21.270Z,14.90
2022-12-13T21:20:23.004Z,14.90
2022-12-13T21:24:26.773Z,14.90
2022-12-13T21:28:28.696Z,14.80
2022-12-13T21:32:30.425Z,14.80
2022-12-13T21:36:38.119Z,14.70
2022-12-13T21:40:48.033Z,14.60
2022-12-13T21:44:49.625Z,14.50
2022-12-13T21:48:52.784Z,14.50
2022-12-13T21:52:54.437Z,14.40
2022-12-13T21:57:14.674Z,14.40
2022-12-13T22:01:16.400Z,14.30
2022-12-13T22:05:18.327Z,14.30
2022-12-13T22:09:19.975Z,14.20
2022-12-13T22:13:21.546Z,14.20
2022-12-13T22:17:29.721Z,14.20
2022-12-13T22:21:36.215Z,14.20
2022-12-13T22:25:37.839Z,14.20
2022-12-13T22:29:39.801Z,14.20
2022-12-13T22:33:41.464Z,14.10
2022-12-13T22:37:43.129Z,14.10
2022-12-13T22:41:45.829Z,14.10
2022-12-13T22:45:47.511Z,14.10
2022-12-13T22:49:50.049Z,14.10
2022-12-13T22:53:51.680Z,14.10
2022-12-13T22:57:53.289Z,14.10
2022-12-13T23:02:02.157Z,14.10
2022-12-13T23:06:21.090Z,14.10
2022-12-13T23:10:41.231Z,14.10
2022-12-13T23:14:44.041Z,14.10
2022-12-13T23:18:46.867Z,14.10
2022-12-13T23:22:48.537Z,14.10
2022-12-13T23:26:50.934Z,14.10
2022-12-13T23:30:52.624Z,14.10
2022-12-13T23:34:54.291Z,14.00
2022-12-13T23:38:58.892Z,14.10
2022-12-13T23:43:00.697Z,14.00
2022-12-13T23:47:02.490Z,14.00
2022-12-13T23:51:06.625Z,14.00
2022-12-13T23:55:08.715Z,14.00
2022-12-13T23:59:10.676Z,14.00
